Participated 2 times
Between 2007 and 2011
Tomas Vaitkus, Latvia
Tour de France 2026 starts from Barcelona, Spain in

Stats and Facts from
Tour de France.

2026   2025   2024   2023  2022  2021  2020  2019   2018  2017   2016   2015  2014  2013   2012   2011  2010   2009   2008   2007   2006   2005   2004   2003   2002   2001   2000   1999   1998   1997  1996   1995   1994   1993   1992  1991   1990   1989   1988   1987   1986   1985   1984   1983  1982  1981   1980   1979  1978  1977   1976  1975  1974  1973   1972   1971   1970  1969   1968   1967   1966   1965  1964  1963   1962   1961   1960   1959   1958   1957  1956   1955   1954   1953   1952  1951  1950  1949   1948  1947  1939   1938   1937   1936   1935   1934   1933  1932   1931   1930  1929   1928   1927   1926  1925  1924  1923   1922   1921   1920   1919  1914   1913   1912   1911   1910  1909   1908   1907   1906  1905  1904   1903 

Tourstats
Sitemap

After stage 21 - 2025:
 16451 starters.
  5464 different riders.
  689 teams.
  2398 stages.
  470 restdays.
  466506.50 km.
  5925 abandoned riders.

Click map for 1952 route.
Facts from Tour de France 1952 Additional info and images from 1952.
  |   Stages.  |   Stage winners.  |   Days in jerseys.  |   Teams.  |   All riders.  |   All riders by age.  |   All riders from.  |  

  |   Rookies.  |   Withdrawls.  |   Average speed.  |   GC.  |   Polka  |   Green  |   White  |   Summits. (In tour)  |   Miscellaneous.  |  

Stage 14 on July 9th. 1952
Pick a stage:  1  2  3  4  5  6  7  8  9  10  11  12  13  14  15  16  17  18  19  20  21  22  23  

After stage 14:    Fausto Coppi  
  Aix-les-BainsAvignon | Dist: 178.00km. | Winner: Jean Robic

Podium
2  Mont Ventoux Jean Robicafter115.00 km.


Average speed for all riders in stage:  27,205 km./hr.

1
 Jean Robic  France06h 16' 49"=28,343  km/h

2
 Gino Bartali  Italy06h 18' 26"+  00:01:37 =28,222  km/h

3
 Raphaël Geminiani  France06h 18' 26"+  00:01:37 =28,222  km/h

4  Stan Ockers  Belgium06h 18' 26"+  00:01:37 =28,222  km/h

5  Wout Wagtmans  Holland06h 18' 26"+  00:01:37 =28,222  km/h

6  Antonio Gelabert  Spain06h 18' 26"+  00:01:37 =28,222  km/h

7  Fausto Coppi  Italy06h 18' 26"+  00:01:37 =28,222  km/h

8  Jean-Baptiste Dotto  France06h 18' 26"+  00:01:37 =28,222  km/h

9  Fiorenzo Magni  Italy06h 20' 07"+  00:03:18 =28,097  km/h

10  Gottfried Weilenmann  Switzerland06h 20' 07"+  00:03:18 =28,097  km/h

11  Alexandre Close  Belgium06h 20' 45"+  00:03:56 =28,050  km/h

12  Marcel Fernandez  North Africa06h 21' 21"+  00:04:32 =28,006  km/h

13  Francisco Masip  Spain06h 21' 21"+  00:04:32 =28,006  km/h

14  Georges Decaux  Paris06h 21' 21"+  00:04:32 =28,006  km/h

15  José Pérez  Spain06h 21' 21"+  00:04:32 =28,006  km/h

16  Franco Franchi  Italy06h 21' 21"+  00:04:32 =28,006  km/h

17  Bernardo Ruíz  Spain06h 21' 21"+  00:04:32 =28,006  km/h

35  Jacques Marinelli  Paris06h 30' 54"+  00:14:05 =27,322  km/h

36  Gerrit Voorting  Holland06h 30' 54"+  00:14:05 =27,322  km/h

37  Pierre Pardoën  Nord Est-Centre06h 30' 54"+  00:14:05 =27,322  km/h

38  Mario Baroni  Italy06h 30' 54"+  00:14:05 =27,322  km/h

39  Giovanni Corrieri  Italy06h 30' 54"+  00:14:05 =27,322  km/h

40  Alfredo Martini  Italy06h 30' 54"+  00:14:05 =27,322  km/h

41  Robert Bonnaventure  France06h 30' 54"+  00:14:05 =27,322  km/h

42  Andrès Trobat  Spain06h 30' 54"+  00:14:05 =27,322  km/h

43  Jean Goldschmit  Luxembourg06h 30' 54"+  00:14:05 =27,322  km/h

44  Eugène Telotte  Paris06h 30' 54"+  00:14:05 =27,322  km/h

45  Giuseppe Mirando  Sud Est06h 30' 54"+  00:14:05 =27,322  km/h

46  Raymond Scardin  Ouest-Sud Ouest06h 30' 54"+  00:14:05 =27,322  km/h

47  Jacques Vivier  Ouest-Sud Ouest06h 30' 54"+  00:14:05 =27,322  km/h

48  Maurice Neyt  Belgium06h 30' 54"+  00:14:05 =27,322  km/h

18  Andrea Carrea  Italy06h 35' 05"+  00:18:16 =27,032  km/h

19  Jan Nolten  Holland06h 35' 05"+  00:18:16 =27,032  km/h

20  Pierre Molineris  Sud Est06h 35' 05"+  00:18:16 =27,032  km/h

21  Alois De Hertog  Belgium06h 35' 05"+  00:18:16 =27,032  km/h

22  José Serra Gil  Spain06h 35' 05"+  00:18:16 =27,032  km/h

23  Eduard Van Ende  Belgium06h 35' 05"+  00:18:16 =27,032  km/h

24  Gilbert Bauvin  Nord Est-Centre06h 35' 05"+  00:18:16 =27,032  km/h

25  Jean De Gribaldy  Nord Est-Centre06h 35' 05"+  00:18:16 =27,032  km/h

26  Nello Lauredi  France06h 35' 05"+  00:18:16 =27,032  km/h

27  Marcel Zelasco  North Africa06h 35' 05"+  00:18:16 =27,032  km/h

28  Wim van Est  Holland06h 35' 05"+  00:18:16 =27,032  km/h

29  Maurice Quentin  France06h 35' 05"+  00:18:16 =27,032  km/h

30  André Rosseel  Belgium06h 35' 05"+  00:18:16 =27,032  km/h

31  Jean Malléjac  Ouest-Sud Ouest06h 35' 05"+  00:18:16 =27,032  km/h

32  Siro Bianchi  Sud Est06h 35' 05"+  00:18:16 =27,032  km/h

33  Roger Decock  Belgium06h 35' 05"+  00:18:16 =27,032  km/h

34  Lucien Lazarides  France06h 35' 05"+  00:18:16 =27,032  km/h

49  Luciano Pezzi  Italy06h 37' 10"+  00:20:21 =26,890  km/h

50  Jean Delahaye  Ouest-Sud Ouest06h 37' 10"+  00:20:21 =26,890  km/h

51  Johny Goedert  Luxembourg06h 37' 10"+  00:20:21 =26,890  km/h

52  Adolphe Deledda  Nord Est-Centre06h 37' 10"+  00:20:21 =26,890  km/h

53  Ettore Milano  Italy06h 37' 10"+  00:20:21 =26,890  km/h

54  Roger Rossinelli  Nord Est-Centre06h 37' 10"+  00:20:21 =26,890  km/h

55  Ahmed Kebaïli  North Africa06h 37' 10"+  00:20:21 =26,890  km/h

56  Giulio Bresci  Italy06h 37' 10"+  00:20:21 =26,890  km/h

57  Henk Faanhof  Holland06h 37' 36"+  00:20:47 =26,861  km/h

58  Antonin Rolland  France06h 37' 36"+  00:20:47 =26,861  km/h

59  Lucien Teisseire  France06h 37' 36"+  00:20:47 =26,861  km/h

60  Paul Giguet  Sud Est06h 37' 36"+  00:20:47 =26,861  km/h

61  Vincent Vitetta  Sud Est06h 37' 40"+  00:20:51 =26,857  km/h

62  Raoul Remy  France06h 37' 44"+  00:20:55 =26,852  km/h

63  Guy Lapébie  Ouest-Sud Ouest06h 37' 44"+  00:20:55 =26,852  km/h

64  Henri Paret  North Africa06h 37' 44"+  00:20:55 =26,852  km/h

65  Jean Bertaina  Sud Est06h 37' 44"+  00:20:55 =26,852  km/h

66  Hans Dekkers  Holland06h 37' 44"+  00:20:55 =26,852  km/h

67  Jacques Renaud  Paris06h 37' 44"+  00:20:55 =26,852  km/h

68  Fiorenzo Crippa  Italy06h 37' 44"+  00:20:55 =26,852  km/h

69  Rene Rotta  Sud Est06h 37' 44"+  00:20:55 =26,852  km/h

70  José Gil Sole  Spain06h 37' 44"+  00:20:55 =26,852  km/h

71  Adolphe Pezzuli  Sud Est06h 37' 44"+  00:20:55 =26,852  km/h

72  Settimo Sabbadini  Ouest-Sud Ouest06h 37' 44"+  00:20:55 =26,852  km/h

73  Jean Le Guilly  Ouest-Sud Ouest06h 37' 44"+  00:20:55 =26,852  km/h

74  Hein Van Breenen  Holland06h 42' 02"+  00:25:13 =26,565  km/h

75  Thijs Roks  Holland06h 42' 02"+  00:25:13 =26,565  km/h

76  Heinrich Spuhler  Switzerland06h 42' 02"+  00:25:13 =26,565  km/h

77  Vincent Soler  North Africa06h 42' 02"+  00:25:13 =26,565  km/h

78  Carlo Lafranchi  Switzerland06h 42' 02"+  00:25:13 =26,565  km/h

79  Walter Diggelmann  Switzerland06h 42' 02"+  00:25:13 =26,565  km/h

80  André Bernard  Ouest-Sud Ouest06h 42' 02"+  00:25:13 =26,565  km/h

81  Bernard Gauthier  France06h 42' 02"+  00:25:13 =26,565  km/h


Withdrawls: 1
 RiderTeamReason
61   Robert Bintz LuxembourgDid not start
Todays birthdays.

1889 • Adolphe Landon
1890 • Jules Lebreton
1904 • Julien Grujon
1909 • Erich Metze
1926 • Giovanni Rossi
1928 • Serge Blusson
1928 • Alois Vansteenkiste
1931 • André Dupré
1934 • Alfred Rüegg
1962 • Francisco Espinosa
1962 • Paul Kimmage
1963 • Federico Muñoz
1966 • Andrea Tafi
1971 • Emmanuel Magnien
1973 • Paolo Savoldelli
1985 • Mikhail Ignatyev

 

Optimized for Chrome - Edge
and Opera browsers.